Time;durP1;ratioP1;P1;durP2;ratioP2;P2;SDS_P1;SDS_P2;PMS_P1;PMS_P2;Temp;Humidity;BMP_temperature;BMP_pressure;BME280_temperature;BME280_humidity;BME280_pressure;Samples;Min_cycle;Max_cycle;Signal;HPM_P1;HPM_P2
2022/01/21 00:01:07;;;;;;;159.10;67.32;;;;;;;0.35;100.00;98252.66;5052365;28;20021;-77
2022/01/21 00:03:34;;;;;;;149.38;63.22;;;;;;;0.36;100.00;98260.50;5045964;28;20123;-75
2022/01/21 00:06:00;;;;;;;144.48;58.45;;;;;;;0.49;100.00;98263.06;5046080;28;20504;-74
2022/01/21 00:08:26;;;;;;;156.40;64.03;;;;;;;0.58;100.00;98255.53;5051262;28;20115;-74
2022/01/21 00:10:51;;;;;;;143.73;60.97;;;;;;;0.53;100.00;98250.00;5048854;28;20055;-77
2022/01/21 00:13:24;;;;;;;121.93;56.40;;;;;;;0.48;100.00;98256.03;5055546;28;20053;-74
2022/01/21 00:15:49;;;;;;;127.07;57.13;;;;;;;0.47;100.00;98262.47;5049428;28;20033;-76
2022/01/21 00:18:18;;;;;;;132.05;58.20;;;;;;;0.49;100.00;98252.31;5041570;28;20029;-74
2022/01/21 00:31:56;;;;;;;70.47;33.30;;;;;;;0.56;100.00;98257.63;5047268;28;20024;-81
2022/01/21 00:34:22;;;;;;;65.50;33.58;;;;;;;0.60;100.00;98257.97;5049287;28;20017;-75
2022/01/21 00:36:47;;;;;;;67.38;35.03;;;;;;;0.64;100.00;98265.38;5048806;28;20104;-75
2022/01/21 00:39:13;;;;;;;59.38;32.85;;;;;;;0.69;100.00;98268.22;5049104;28;20029;-75
2022/01/21 00:41:54;;;;;;;63.63;32.85;;;;;;;0.71;100.00;98259.94;5046085;28;20033;-76
2022/01/21 00:44:20;;;;;;;67.65;33.88;;;;;;;0.84;100.00;98271.38;5037631;28;20036;-77
2022/01/21 00:46:45;;;;;;;62.28;31.95;;;;;;;0.86;100.00;98263.88;5048799;28;20025;-75
2022/01/21 00:49:11;;;;;;;56.00;31.30;;;;;;;0.94;100.00;98271.63;5031236;28;20033;-74
2022/01/21 00:51:36;;;;;;;58.95;33.22;;;;;;;0.97;100.00;98268.50;5042278;28;20060;-77
2022/01/21 00:54:02;;;;;;;60.03;34.00;;;;;;;0.97;100.00;98271.19;5052157;28;20036;-76
2022/01/21 00:56:27;;;;;;;65.45;35.63;;;;;;;0.98;100.00;98277.41;5056931;28;20119;-76
2022/01/21 00:58:52;;;;;;;57.50;33.90;;;;;;;1.03;100.00;98281.06;5051882;28;20029;-80
2022/01/21 01:01:18;;;;;;;63.20;34.35;;;;;;;1.06;100.00;98280.63;5033004;28;20543;-76
2022/01/21 01:03:43;;;;;;;62.88;34.50;;;;;;;1.07;100.00;98290.34;5034281;28;20041;-78
2022/01/21 01:06:09;;;;;;;65.60;34.45;;;;;;;1.16;100.00;98295.41;5034437;28;20029;-76
2022/01/21 01:08:34;;;;;;;68.75;37.42;;;;;;;1.16;100.00;98298.13;5034023;28;20408;-75
2022/01/21 01:21:29;;;;;;;95.18;46.60;;;;;;;0.93;100.00;98302.31;5033691;28;20505;-79
2022/01/21 01:29:37;;;;;;;80.88;39.40;;;;;;;0.91;100.00;98309.78;5051957;28;20591;-79
2022/01/21 01:32:03;;;;;;;76.68;39.13;;;;;;;1.03;100.00;98320.66;5032149;28;20041;-76
2022/01/21 01:34:28;;;;;;;85.25;40.50;;;;;;;1.02;100.00;98306.34;5033168;28;20079;-77
2022/01/21 01:36:58;;;;;;;82.03;41.83;;;;;;;0.97;100.00;98314.28;5033273;28;20022;-76
2022/01/21 01:39:46;;;;;;;86.70;42.67;;;;;;;0.94;100.00;98324.69;5033406;28;20464;-75
2022/01/21 01:50:34;;;;;;;82.68;40.72;;;;;;;1.02;100.00;98319.81;5034615;28;20068;-75
2022/01/21 01:53:00;;;;;;;79.85;40.22;;;;;;;0.90;100.00;98305.47;5033945;28;20036;-75
2022/01/21 01:55:26;;;;;;;86.63;42.78;;;;;;;0.82;100.00;98311.13;5032093;28;20061;-75
2022/01/21 01:57:53;;;;;;;82.07;42.63;;;;;;;0.82;100.00;98319.22;5033161;28;20029;-76
2022/01/21 02:00:19;;;;;;;81.95;42.70;;;;;;;0.84;100.00;98321.69;5033085;28;20022;-77
2022/01/21 02:02:44;;;;;;;85.25;43.15;;;;;;;0.93;100.00;98317.66;5034138;28;20057;-76
2022/01/21 02:05:10;;;;;;;83.22;42.33;;;;;;;0.85;100.00;98316.06;5040608;28;20026;-75
2022/01/21 02:07:35;;;;;;;85.97;43.08;;;;;;;0.81;100.00;98309.50;5031600;28;20466;-75
2022/01/21 02:10:00;;;;;;;86.88;43.33;;;;;;;0.83;100.00;98310.09;5032475;28;20029;-75
2022/01/21 02:12:26;;;;;;;83.35;41.65;;;;;;;0.86;100.00;98319.59;5032776;28;20026;-76
2022/01/21 02:14:54;;;;;;;86.13;43.03;;;;;;;0.88;100.00;98310.22;5032670;28;20030;-76
2022/01/21 02:22:34;;;;;;;85.63;42.17;;;;;;;0.85;100.00;98316.06;5032720;28;20509;-77
2022/01/21 02:25:15;;;;;;;74.07;40.95;;;;;;;0.94;100.00;98325.50;5032476;28;20411;-76
2022/01/21 02:27:40;;;;;;;76.68;40.00;;;;;;;0.98;100.00;98320.47;5056426;28;20041;-76
2022/01/21 02:30:07;;;;;;;75.10;40.58;;;;;;;0.93;100.00;98323.88;5058402;28;20021;-75
2022/01/21 02:32:33;;;;;;;84.88;42.53;;;;;;;1.01;100.00;98337.00;5052133;28;20020;-76
2022/01/21 02:34:58;;;;;;;83.10;42.42;;;;;;;0.95;100.00;98332.53;5051780;28;20363;-78
2022/01/21 02:37:23;;;;;;;80.53;40.35;;;;;;;0.94;100.00;98338.94;5051941;28;20070;-79
2022/01/21 02:39:49;;;;;;;82.85;41.80;;;;;;;0.92;100.00;98341.06;5051736;28;20036;-77
2022/01/21 02:42:15;;;;;;;81.40;42.83;;;;;;;0.87;100.00;98340.91;5051598;28;20021;-76
2022/01/21 02:44:42;;;;;;;77.70;39.97;;;;;;;0.83;100.00;98346.97;5051718;28;20021;-77
2022/01/21 02:47:08;;;;;;;73.00;37.40;;;;;;;0.77;100.00;98346.00;5054881;28;20371;-76
2022/01/21 02:49:34;;;;;;;77.47;38.88;;;;;;;0.62;100.00;98342.84;5051572;28;20021;-75
2022/01/21 02:52:01;;;;;;;82.68;42.47;;;;;;;0.52;100.00;98351.41;5051347;28;20123;-79
2022/01/21 02:54:33;;;;;;;78.63;39.92;;;;;;;0.56;100.00;98350.97;5051513;28;20047;-75
2022/01/21 02:57:01;;;;;;;74.70;41.08;;;;;;;0.44;100.00;98361.63;5051328;28;20402;-77
2022/01/21 02:59:26;;;;;;;85.38;42.08;;;;;;;0.59;100.00;98359.44;5051419;28;20032;-75
2022/01/21 03:01:52;;;;;;;75.88;38.70;;;;;;;0.63;100.00;98360.59;5051394;28;20028;-76
2022/01/21 03:04:30;;;;;;;76.95;38.33;;;;;;;0.56;100.00;98365.25;5049570;28;20033;-79
2022/01/21 03:06:57;;;;;;;75.47;39.63;;;;;;;0.59;100.00;98367.50;5051023;28;20102;-75
2022/01/21 03:09:22;;;;;;;78.30;42.50;;;;;;;0.57;100.00;98371.44;5049852;28;20025;-76
2022/01/21 03:11:47;;;;;;;82.85;41.10;;;;;;;0.43;100.00;98357.31;5049857;28;20083;-75
2022/01/21 03:14:13;;;;;;;102.18;44.25;;;;;;;0.39;100.00;98372.22;5051055;28;20028;-75
2022/01/21 03:16:38;;;;;;;130.32;48.70;;;;;;;0.39;100.00;98369.53;5048967;28;20386;-76
2022/01/21 03:19:04;;;;;;;120.20;49.90;;;;;;;0.38;100.00;98375.94;5050977;28;20037;-75
2022/01/21 03:21:29;;;;;;;119.40;48.75;;;;;;;0.41;100.00;98380.88;5031972;28;20029;-76
2022/01/21 03:23:55;;;;;;;116.78;49.15;;;;;;;0.37;100.00;98374.31;5030887;28;20022;-75
2022/01/21 03:26:25;;;;;;;107.03;46.38;;;;;;;0.34;100.00;98372.91;5030736;28;20059;-75
2022/01/21 03:28:53;;;;;;;106.20;46.15;;;;;;;0.38;100.00;98384.03;5029686;28;20018;-77
2022/01/21 03:31:19;;;;;;;98.45;44.22;;;;;;;0.31;100.00;98375.19;5029953;28;20060;-76
2022/01/21 03:33:45;;;;;;;98.63;44.53;;;;;;;0.13;100.00;98375.13;5030810;28;20120;-75
2022/01/21 03:36:11;;;;;;;87.25;42.47;;;;;;;0.11;100.00;98382.59;5029194;28;20493;-74
2022/01/21 03:38:37;;;;;;;88.38;41.97;;;;;;;0.02;100.00;98383.91;5030808;28;20032;-74
2022/01/21 03:41:04;;;;;;;106.15;43.38;;;;;;;-0.09;100.00;98380.84;5031311;28;20099;-77
2022/01/21 03:43:31;;;;;;;111.72;47.72;;;;;;;0.07;100.00;98384.06;5030762;28;20033;-76
2022/01/21 03:45:57;;;;;;;102.30;45.38;;;;;;;0.06;100.00;98382.44;5031380;28;20030;-76
2022/01/21 03:48:23;;;;;;;91.35;45.58;;;;;;;0.05;100.00;98372.72;5030787;28;20030;-77
2022/01/21 03:50:49;;;;;;;92.07;44.08;;;;;;;-0.03;100.00;98371.91;5030796;28;20021;-76
2022/01/21 03:53:15;;;;;;;92.40;44.03;;;;;;;-0.14;100.00;98372.63;5031092;28;20561;-75
2022/01/21 03:55:41;;;;;;;90.47;42.90;;;;;;;-0.21;100.00;98376.38;5030236;28;20068;-75
2022/01/21 03:58:08;;;;;;;95.90;45.33;;;;;;;-0.29;100.00;98372.13;5030054;28;20041;-77
2022/01/21 04:00:37;;;;;;;90.60;43.00;;;;;;;-0.29;100.00;98377.50;5036127;28;20087;-78
2022/01/21 04:03:05;;;;;;;97.75;47.03;;;;;;;-0.28;100.00;98371.06;5031246;28;20060;-76
2022/01/21 04:05:31;;;;;;;89.88;45.42;;;;;;;-0.44;100.00;98382.34;5029094;28;20021;-76
2022/01/21 04:07:57;;;;;;;96.20;44.88;;;;;;;-0.42;100.00;98374.88;5030551;28;20363;-76
2022/01/21 04:10:23;;;;;;;100.60;45.50;;;;;;;-0.51;100.00;98378.03;5030252;28;20079;-76
2022/01/21 04:12:49;;;;;;;86.30;42.78;;;;;;;-0.61;100.00;98381.16;5030607;28;20030;-76
2022/01/21 04:15:15;;;;;;;93.30;41.58;;;;;;;-0.64;100.00;98384.28;5029588;28;20382;-75
2022/01/21 04:17:41;;;;;;;90.50;45.95;;;;;;;-0.61;100.00;98378.47;5064091;28;20558;-76
2022/01/21 04:20:08;;;;;;;90.18;41.80;;;;;;;-0.61;100.00;98375.78;5039490;28;20025;-76
2022/01/21 04:22:33;;;;;;;95.10;43.88;;;;;;;-0.71;100.00;98372.72;5049931;28;20032;-77
2022/01/21 04:25:00;;;;;;;88.65;41.97;;;;;;;-0.61;100.00;98384.69;5049335;28;20029;-76
2022/01/21 04:27:26;;;;;;;98.25;44.65;;;;;;;-0.73;100.00;98375.66;5048790;28;20401;-76
2022/01/21 04:29:51;;;;;;;100.50;44.72;;;;;;;-0.85;100.00;98384.56;5052561;28;20005;-75
2022/01/21 04:32:17;;;;;;;90.43;44.30;;;;;;;-0.91;100.00;98383.56;5054386;28;20025;-76
2022/01/21 04:34:42;;;;;;;90.00;44.80;;;;;;;-0.74;100.00;98383.91;5053982;28;20040;-75
2022/01/21 04:37:11;;;;;;;98.00;45.22;;;;;;;-0.86;100.00;98382.91;5056932;28;20431;-76
2022/01/21 04:39:44;;;;;;;96.00;45.50;;;;;;;-0.78;100.00;98388.03;5054881;28;20533;-77
2022/01/21 04:47:35;;;;;;;96.22;45.65;;;;;;;-0.84;100.00;98403.13;5054210;28;20075;-75
2022/01/21 04:50:08;;;;;;;99.13;46.60;;;;;;;-0.90;100.00;98403.16;5053959;28;20033;-75
2022/01/21 04:52:33;;;;;;;90.57;46.13;;;;;;;-1.00;100.00;98416.22;5053513;28;20039;-76
2022/01/21 04:54:59;;;;;;;85.68;43.53;;;;;;;-1.00;100.00;98408.16;5052290;28;20021;-74
2022/01/21 04:57:24;;;;;;;93.10;45.10;;;;;;;-1.03;100.00;98416.63;5053823;28;20028;-76
2022/01/21 04:59:50;;;;;;;99.25;48.58;;;;;;;-1.19;100.00;98413.34;5054085;28;20029;-75
2022/01/21 05:02:15;;;;;;;96.55;46.85;;;;;;;-1.09;100.00;98423.66;5054257;28;20119;-75
2022/01/21 05:04:40;;;;;;;98.03;46.28;;;;;;;-1.14;100.00;98424.28;5053981;28;20033;-77
2022/01/21 05:07:08;;;;;;;95.10;45.20;;;;;;;-1.07;100.00;98425.06;5053851;28;20047;-75
2022/01/21 05:09:35;;;;;;;101.32;47.67;;;;;;;-1.15;100.00;98430.69;5053947;28;20035;-76
2022/01/21 05:12:07;;;;;;;115.43;50.78;;;;;;;-0.99;100.00;98425.91;5053729;28;20104;-77
2022/01/21 05:14:50;;;;;;;111.95;50.95;;;;;;;-0.94;100.00;98416.16;5053635;28;20474;-77
2022/01/21 05:17:16;;;;;;;118.88;53.10;;;;;;;-0.89;100.00;98423.59;5053290;28;20033;-76
2022/01/21 05:19:42;;;;;;;95.55;47.47;;;;;;;-0.86;100.00;98429.38;5053346;28;20123;-75
2022/01/21 05:22:08;;;;;;;101.50;45.88;;;;;;;-1.00;100.00;98429.63;5052230;28;20040;-76
2022/01/21 05:24:33;;;;;;;90.47;43.42;;;;;;;-1.14;100.00;98434.19;5052202;28;20087;-77
2022/01/21 05:27:01;;;;;;;88.88;43.97;;;;;;;-1.30;100.00;98442.66;5053418;28;20024;-75
2022/01/21 05:29:31;;;;;;;96.82;46.95;;;;;;;-1.50;100.00;98431.94;5053373;28;20033;-76
2022/01/21 05:31:56;;;;;;;106.80;48.15;;;;;;;-1.35;100.00;98451.38;5056167;28;20033;-76
2022/01/21 05:34:23;;;;;;;106.30;47.63;;;;;;;-1.37;100.00;98450.72;5054733;28;20028;-75
2022/01/21 05:36:48;;;;;;;97.43;46.75;;;;;;;-1.40;100.00;98448.44;5053207;28;20075;-76
2022/01/21 05:39:16;;;;;;;107.63;48.97;;;;;;;-1.49;100.00;98456.91;5052657;28;20033;-75
2022/01/21 05:41:46;;;;;;;104.10;49.65;;;;;;;-1.50;100.00;98466.81;5052998;28;20028;-75
2022/01/21 05:44:19;;;;;;;109.88;49.65;;;;;;;-1.60;100.00;98463.72;5051938;28;20090;-77
2022/01/21 05:46:54;;;;;;;105.40;50.65;;;;;;;-1.50;100.00;98464.13;5053084;28;20036;-84
2022/01/21 05:49:20;;;;;;;127.70;54.50;;;;;;;-1.54;100.00;98462.91;5054416;28;20029;-82
2022/01/21 05:51:46;;;;;;;134.73;58.75;;;;;;;-1.53;100.00;98474.44;5054014;28;20036;-76
2022/01/21 05:54:13;;;;;;;120.18;56.10;;;;;;;-1.40;100.00;98482.50;5053769;28;20397;-76
2022/01/21 05:56:38;;;;;;;112.82;53.75;;;;;;;-1.38;100.00;98478.56;5053559;28;20179;-78
2022/01/21 05:59:05;;;;;;;99.25;47.55;;;;;;;-1.48;100.00;98478.19;5052969;28;20153;-80
2022/01/21 06:01:33;;;;;;;118.97;53.60;;;;;;;-1.53;100.00;98496.72;5053584;28;20052;-78
2022/01/21 06:03:58;;;;;;;114.80;52.42;;;;;;;-1.46;100.00;98483.31;5052811;28;20078;-78
2022/01/21 06:06:24;;;;;;;102.25;47.42;;;;;;;-1.50;100.00;98496.31;5052930;28;20421;-77
2022/01/21 06:08:49;;;;;;;121.05;57.80;;;;;;;-1.52;100.00;98486.81;5052740;28;20025;-77
2022/01/21 06:11:14;;;;;;;121.40;53.70;;;;;;;-1.61;100.00;98483.53;5052627;28;20104;-75
2022/01/21 06:13:40;;;;;;;131.88;57.38;;;;;;;-1.57;100.00;98494.66;5052599;28;20123;-76
2022/01/21 06:16:05;;;;;;;117.07;55.88;;;;;;;-1.57;100.00;98500.03;5051272;28;20025;-80
2022/01/21 06:18:31;;;;;;;112.22;54.22;;;;;;;-1.58;100.00;98493.00;5052382;28;20163;-75
2022/01/21 06:20:57;;;;;;;112.65;53.97;;;;;;;-1.66;100.00;98491.38;5052601;28;20028;-75
2022/01/21 06:23:22;;;;;;;110.00;54.08;;;;;;;-1.66;100.00;98510.94;5052862;28;20025;-76
2022/01/21 06:25:48;;;;;;;108.07;53.30;;;;;;;-1.55;100.00;98504.16;5051311;28;20098;-78
2022/01/21 06:28:13;;;;;;;101.15;49.10;;;;;;;-1.43;100.00;98515.91;5054636;28;20051;-77
2022/01/21 06:30:39;;;;;;;105.85;52.08;;;;;;;-1.37;100.00;98517.78;5053213;28;20029;-76
2022/01/21 06:33:04;;;;;;;101.50;49.55;;;;;;;-1.39;100.00;98514.50;5052439;28;20082;-77
2022/01/21 06:35:30;;;;;;;105.22;50.88;;;;;;;-1.36;100.00;98514.06;5051137;28;20462;-77
2022/01/21 06:37:55;;;;;;;92.53;47.95;;;;;;;-1.34;100.00;98528.09;5049456;28;20359;-75
2022/01/21 06:40:21;;;;;;;101.18;49.55;;;;;;;-1.28;100.00;98531.81;5050667;28;20044;-75
2022/01/21 06:42:52;;;;;;;97.55;47.67;;;;;;;-1.23;100.00;98532.88;5052709;28;20021;-76
2022/01/21 06:45:19;;;;;;;91.10;48.53;;;;;;;-1.22;100.00;98531.81;5051483;28;20028;-75
2022/01/21 06:47:47;;;;;;;103.30;50.20;;;;;;;-1.33;100.00;98535.13;5051001;28;20021;-79
2022/01/21 06:50:12;;;;;;;92.93;47.42;;;;;;;-1.27;100.00;98545.03;5051511;28;20039;-78
2022/01/21 06:52:38;;;;;;;89.13;44.70;;;;;;;-1.18;100.00;98551.84;5052424;28;20033;-75
2022/01/21 06:55:04;;;;;;;94.85;45.90;;;;;;;-1.18;100.00;98557.22;5059476;28;20040;-77
2022/01/21 06:57:30;;;;;;;90.50;45.22;;;;;;;-1.01;100.00;98575.59;5050902;28;20532;-75
2022/01/21 06:59:55;;;;;;;94.60;45.30;;;;;;;-0.66;100.00;98572.47;5051819;28;20064;-74
2022/01/21 07:02:21;;;;;;;95.57;43.38;;;;;;;-0.47;100.00;98578.03;5051938;28;20108;-75
2022/01/21 07:04:48;;;;;;;82.00;41.28;;;;;;;-0.38;100.00;98592.91;5045923;28;20020;-74
2022/01/21 07:07:14;;;;;;;87.60;43.17;;;;;;;-0.55;100.00;98592.50;5053799;28;20033;-74
2022/01/21 07:09:40;;;;;;;83.93;40.83;;;;;;;-0.05;100.00;98589.06;5049515;28;20039;-75
2022/01/21 07:12:06;;;;;;;72.80;38.40;;;;;;;0.38;100.00;98607.31;5049581;28;20029;-74
2022/01/21 07:14:31;;;;;;;75.85;36.55;;;;;;;0.39;100.00;98611.66;5048393;28;20623;-76
2022/01/21 07:16:57;;;;;;;72.53;38.55;;;;;;;0.60;100.00;98603.25;5046471;28;20029;-75
2022/01/21 07:19:22;;;;;;;66.95;36.58;;;;;;;1.35;100.00;98623.88;5047290;28;20035;-76
2022/01/21 07:21:48;;;;;;;80.07;38.28;;;;;;;2.31;100.00;98617.91;5050069;28;20037;-76
2022/01/21 07:24:14;;;;;;;66.05;35.30;;;;;;;1.79;100.00;98625.53;5050546;28;20025;-75
2022/01/21 07:26:39;;;;;;;64.82;35.30;;;;;;;1.01;100.00;98627.03;5052623;28;20497;-76
2022/01/21 07:29:05;;;;;;;64.93;34.65;;;;;;;0.56;100.00;98628.97;5049312;28;20028;-75
2022/01/21 07:31:31;;;;;;;67.97;36.88;;;;;;;0.64;100.00;98631.41;5049971;28;20032;-74
2022/01/21 07:33:56;;;;;;;67.80;35.50;;;;;;;0.59;100.00;98623.16;5050455;28;20029;-74
2022/01/21 07:36:22;;;;;;;69.18;35.20;;;;;;;0.74;100.00;98637.16;5049994;28;20021;-74
2022/01/21 07:38:48;;;;;;;71.68;37.97;;;;;;;0.45;100.00;98649.28;5050237;28;20086;-74
2022/01/21 07:41:13;;;;;;;65.75;32.75;;;;;;;1.17;100.00;98649.91;5048465;28;20041;-74
2022/01/21 07:43:39;;;;;;;59.17;32.00;;;;;;;2.25;100.00;98643.13;5048778;28;20037;-74
2022/01/21 07:46:04;;;;;;;61.35;30.15;;;;;;;3.89;100.00;98656.91;5049990;28;20029;-75
2022/01/21 07:48:30;;;;;;;59.30;33.55;;;;;;;4.07;99.81;98668.44;5054642;28;20057;-75
2022/01/21 07:50:55;;;;;;;61.55;30.60;;;;;;;3.71;100.00;98652.44;5051682;28;20025;-74
2022/01/21 07:53:20;;;;;;;57.70;31.65;;;;;;;4.57;100.00;98654.38;5050063;28;20025;-73
2022/01/21 07:55:50;;;;;;;57.67;30.67;;;;;;;5.90;89.71;98669.06;5049924;28;20476;-74
2022/01/21 07:58:16;;;;;;;55.45;30.85;;;;;;;5.59;89.36;98676.91;5048157;28;20111;-74
2022/01/21 08:00:41;;;;;;;50.38;29.55;;;;;;;4.46;94.70;98657.94;5048905;28;20115;-74
2022/01/21 08:03:06;;;;;;;58.80;32.53;;;;;;;3.53;100.00;98663.38;5053258;28;20025;-74
2022/01/21 08:05:34;;;;;;;56.08;31.52;;;;;;;2.82;100.00;98685.78;5055646;28;20074;-74
2022/01/21 08:08:00;;;;;;;59.33;31.52;;;;;;;2.15;100.00;98690.34;5055926;28;20470;-75
2022/01/21 08:10:25;;;;;;;61.15;34.03;;;;;;;1.57;100.00;98670.13;5055999;28;20028;-74
2022/01/21 08:12:51;;;;;;;61.47;33.05;;;;;;;1.47;100.00;98665.22;5056087;28;20064;-74
2022/01/21 08:15:16;;;;;;;65.63;34.53;;;;;;;1.31;100.00;98681.13;5054515;28;20525;-74
2022/01/21 08:17:42;;;;;;;62.47;35.05;;;;;;;0.89;100.00;98696.91;5051920;28;20033;-74
2022/01/21 08:20:08;;;;;;;70.65;38.60;;;;;;;0.79;100.00;98695.72;5054974;28;20025;-74
2022/01/21 08:22:34;;;;;;;73.07;37.50;;;;;;;1.07;100.00;98697.00;5055781;28;20778;-74
2022/01/21 08:24:59;;;;;;;77.53;39.13;;;;;;;1.28;100.00;98703.94;5054024;28;20029;-74
2022/01/21 08:27:24;;;;;;;72.00;36.53;;;;;;;1.94;100.00;98711.50;5051724;28;20047;-74
2022/01/21 08:29:50;;;;;;;69.90;34.83;;;;;;;2.35;100.00;98716.28;5053493;28;20033;-74
2022/01/21 08:32:16;;;;;;;69.20;34.90;;;;;;;2.30;100.00;98726.91;5053550;28;20025;-74
2022/01/21 08:34:42;;;;;;;73.70;33.83;;;;;;;1.68;100.00;98741.38;5056051;28;20028;-75
2022/01/21 08:37:07;;;;;;;63.55;33.47;;;;;;;0.94;100.00;98752.81;5055536;28;20036;-74
2022/01/21 08:39:33;;;;;;;70.78;38.90;;;;;;;0.61;100.00;98760.19;5055368;28;20033;-73
2022/01/21 08:41:58;;;;;;;69.05;36.13;;;;;;;0.38;100.00;98761.47;5055304;28;20482;-74
2022/01/21 08:44:24;;;;;;;69.57;32.25;;;;;;;0.33;100.00;98763.16;5055746;28;20032;-74
2022/01/21 08:46:49;;;;;;;68.43;35.40;;;;;;;0.16;100.00;98732.38;5054230;28;20082;-73
2022/01/21 08:49:18;;;;;;;70.50;34.53;;;;;;;0.25;100.00;98756.13;5055578;28;20074;-73
2022/01/21 08:51:53;;;;;;;67.50;34.75;;;;;;;0.35;100.00;98755.69;5055705;28;20561;-73
2022/01/21 08:54:19;;;;;;;76.25;34.47;;;;;;;0.73;100.00;98750.41;5055331;28;20417;-73
2022/01/21 08:56:46;;;;;;;82.80;35.42;;;;;;;0.97;100.00;98755.88;5055332;28;20045;-73
2022/01/21 08:59:12;;;;;;;68.50;32.63;;;;;;;1.03;100.00;98771.19;5054922;28;20087;-73
2022/01/21 09:01:38;;;;;;;69.18;32.95;;;;;;;1.22;100.00;98779.41;5045915;28;20048;-74
2022/01/21 09:04:03;;;;;;;67.43;34.50;;;;;;;0.53;100.00;98778.19;5054985;28;20039;-74
2022/01/21 09:06:29;;;;;;;72.25;35.50;;;;;;;0.49;100.00;98778.84;5054815;28;20025;-75
2022/01/21 09:08:59;;;;;;;72.05;34.85;;;;;;;0.68;100.00;98783.34;5054750;28;20029;-75
2022/01/21 09:11:27;;;;;;;68.82;34.10;;;;;;;1.16;100.00;98785.66;5053899;28;20181;-75
2022/01/21 09:13:53;;;;;;;65.40;33.10;;;;;;;1.42;100.00;98780.09;5054507;28;20093;-73
2022/01/21 09:16:21;;;;;;;52.53;29.92;;;;;;;1.98;100.00;98780.13;5051610;28;20021;-74
2022/01/21 09:18:50;;;;;;;51.67;27.52;;;;;;;2.56;100.00;98772.53;5051204;28;20021;-74
2022/01/21 09:21:19;;;;;;;52.67;27.60;;;;;;;2.57;100.00;98779.56;5050177;28;20094;-77
2022/01/21 09:23:49;;;;;;;55.53;29.05;;;;;;;2.88;100.00;98779.44;5051425;28;20096;-78
2022/01/21 09:26:17;;;;;;;52.60;28.98;;;;;;;2.69;100.00;98778.59;5051156;28;20036;-74
2022/01/21 09:28:43;;;;;;;43.60;25.88;;;;;;;2.60;100.00;98789.97;5051493;28;20017;-74
2022/01/21 09:31:09;;;;;;;51.03;29.10;;;;;;;2.26;100.00;98783.19;5050665;28;20029;-74
2022/01/21 09:33:35;;;;;;;45.20;26.27;;;;;;;2.92;100.00;98794.16;5051575;28;20028;-74
2022/01/21 09:36:00;;;;;;;44.10;24.73;;;;;;;2.50;100.00;98795.03;5050121;28;20474;-74
2022/01/21 09:38:26;;;;;;;52.90;28.63;;;;;;;2.42;100.00;98792.59;5051119;28;20447;-74
2022/01/21 09:40:55;;;;;;;41.63;24.75;;;;;;;1.93;100.00;98794.28;5048023;28;20120;-74
2022/01/21 09:43:22;;;;;;;37.50;22.40;;;;;;;2.34;100.00;98793.72;5049986;28;20021;-74
2022/01/21 09:45:52;;;;;;;36.38;20.25;;;;;;;2.00;100.00;98788.84;5051413;28;20013;-73
2022/01/21 09:48:28;;;;;;;38.08;20.30;;;;;;;1.90;100.00;98810.09;5050918;28;20490;-74
2022/01/21 09:50:57;;;;;;;30.23;16.65;;;;;;;1.60;100.00;98809.84;5047179;28;20025;-74
2022/01/21 09:53:28;;;;;;;30.30;16.90;;;;;;;1.43;100.00;98804.16;5050577;28;20028;-74
2022/01/21 09:55:59;;;;;;;34.00;17.77;;;;;;;1.63;100.00;98796.78;5050718;28;20087;-74
2022/01/21 09:58:27;;;;;;;25.55;14.35;;;;;;;2.39;100.00;98791.19;5050836;28;20124;-74
2022/01/21 10:00:53;;;;;;;23.48;13.63;;;;;;;4.01;96.71;98793.88;5040434;28;20124;-73
2022/01/21 10:03:22;;;;;;;21.13;12.07;;;;;;;2.78;96.06;98787.25;5049012;28;20033;-74
2022/01/21 10:05:48;;;;;;;25.88;12.32;;;;;;;1.76;100.00;98792.31;5046251;28;20501;-75
2022/01/21 10:08:15;;;;;;;26.23;11.10;;;;;;;1.77;100.00;98789.44;5038095;28;20027;-74
2022/01/21 10:10:43;;;;;;;17.88;10.10;;;;;;;4.01;90.04;98782.25;5032716;28;20029;-73
2022/01/21 10:13:09;;;;;;;16.83;9.70;;;;;;;5.28;80.83;98805.72;5032000;28;20049;-74
2022/01/21 10:15:37;;;;;;;12.88;7.82;;;;;;;3.77;79.22;98801.13;5030599;28;20368;-73
2022/01/21 10:18:10;;;;;;;13.15;7.40;;;;;;;5.09;76.78;98790.69;5032105;28;20033;-73
2022/01/21 10:20:36;;;;;;;13.70;7.57;;;;;;;5.58;74.29;98786.50;5031754;28;20030;-74
2022/01/21 10:23:02;;;;;;;17.60;7.85;;;;;;;4.43;77.76;98791.09;5030808;28;20028;-80
2022/01/21 10:25:33;;;;;;;11.25;6.78;;;;;;;4.44;75.41;98790.06;5034968;28;20386;-73
2022/01/21 10:28:19;;;;;;;11.88;6.53;;;;;;;5.24;72.91;98780.97;5041750;28;20032;-75
2022/01/21 10:30:46;;;;;;;16.67;6.68;;;;;;;4.59;74.90;98785.81;5050390;28;20406;-75
2022/01/21 10:33:23;;;;;;;14.25;6.97;;;;;;;4.97;73.50;98777.16;5050754;28;20020;-74
2022/01/21 10:35:51;;;;;;;12.73;8.02;;;;;;;6.90;69.06;98783.03;5039927;28;20021;-74
2022/01/21 10:38:23;;;;;;;16.13;9.13;;;;;;;7.42;66.00;98786.13;5049892;28;20048;-74
2022/01/21 10:40:49;;;;;;;18.77;10.23;;;;;;;5.94;71.11;98791.56;5051521;28;20029;-74
2022/01/21 10:43:18;;;;;;;21.00;10.63;;;;;;;4.60;75.18;98783.94;5051392;28;20024;-75
2022/01/21 10:45:56;;;;;;;17.75;10.52;;;;;;;4.58;76.76;98772.50;5044162;28;20098;-74
2022/01/21 10:48:21;;;;;;;19.85;9.38;;;;;;;4.99;74.38;98774.19;5046483;28;20021;-74
2022/01/21 10:51:15;;;;;;;17.17;10.07;;;;;;;4.25;78.82;98763.09;5049481;28;20043;-74
2022/01/21 10:53:43;;;;;;;18.58;9.23;;;;;;;3.78;80.66;98775.72;5051339;28;20530;-74
2022/01/21 10:56:12;;;;;;;16.90;8.52;;;;;;;3.04;83.24;98759.91;5048295;28;20152;-74
2022/01/21 10:58:43;;;;;;;17.40;9.75;;;;;;;3.53;82.42;98766.97;5040060;28;20041;-74
2022/01/21 11:01:13;;;;;;;15.18;8.98;;;;;;;4.35;79.83;98761.69;5032567;28;20028;-73
2022/01/21 11:03:57;;;;;;;15.32;8.57;;;;;;;4.90;76.36;98764.78;5039721;28;20029;-79
2022/01/21 11:06:26;;;;;;;16.05;9.25;;;;;;;5.50;72.47;98763.31;5046473;28;20029;-74
2022/01/21 11:09:18;;;;;;;15.40;9.35;;;;;;;4.87;76.00;98757.97;5039229;28;20651;-72
2022/01/21 11:11:46;;;;;;;17.10;10.80;;;;;;;4.34;78.70;98755.44;5038993;28;20120;-75
2022/01/21 11:14:17;;;;;;;19.25;10.35;;;;;;;3.81;81.24;98749.25;5041777;28;20029;-73
2022/01/21 11:16:45;;;;;;;18.05;9.52;;;;;;;3.61;79.30;98750.38;5040252;28;20031;-73
2022/01/21 11:19:15;;;;;;;18.60;10.15;;;;;;;4.56;76.69;98737.53;5046129;28;20025;-73
2022/01/21 11:21:47;;;;;;;15.10;8.70;;;;;;;5.82;71.46;98744.63;5050446;28;20106;-73
2022/01/21 11:24:14;;;;;;;17.33;9.20;;;;;;;5.69;71.39;98740.34;5050443;28;20470;-73
2022/01/21 11:26:40;;;;;;;19.23;9.88;;;;;;;5.09;72.01;98745.44;5049155;28;20044;-73
2022/01/21 11:29:06;;;;;;;14.45;8.13;;;;;;;5.40;71.88;98738.69;5050683;28;20052;-73
2022/01/21 11:31:32;;;;;;;17.40;9.60;;;;;;;4.97;72.79;98739.22;5050539;28;20103;-73
2022/01/21 11:33:58;;;;;;;16.48;9.00;;;;;;;5.68;68.97;98721.56;5054671;28;20016;-73
2022/01/21 11:36:25;;;;;;;18.63;9.15;;;;;;;6.13;67.75;98741.38;5052272;28;20829;-73
2022/01/21 11:38:55;;;;;;;14.68;8.93;;;;;;;6.66;65.72;98712.81;5049764;28;20024;-73
2022/01/21 11:41:21;;;;;;;17.98;8.43;;;;;;;5.90;66.25;98722.53;5048768;28;20029;-73
2022/01/21 11:43:51;;;;;;;17.00;9.27;;;;;;;6.06;66.14;98724.44;5048526;28;20033;-73
2022/01/21 11:48:50;;;;;;;38.88;31.00;;;;;;;6.89;65.86;98726.19;5050241;28;20025;-73
2022/01/21 11:51:31;;;;;;;19.75;10.15;;;;;;;7.05;64.95;98730.72;5050195;28;20504;-73
2022/01/21 11:54:00;;;;;;;14.52;9.27;;;;;;;6.16;64.95;98723.75;5036645;28;20026;-74
2022/01/21 11:56:28;;;;;;;14.60;8.68;;;;;;;5.73;67.47;98713.53;5043238;28;20073;-73
2022/01/21 11:59:24;;;;;;;14.25;7.95;;;;;;;4.84;70.18;98712.38;5049735;28;20514;-74
2022/01/21 12:01:50;;;;;;;16.00;9.23;;;;;;;4.61;71.01;98704.28;5039856;28;20045;-73
2022/01/21 12:04:36;;;;;;;14.90;8.90;;;;;;;4.00;73.08;98705.66;5050076;28;20108;-73
2022/01/21 12:07:01;;;;;;;16.38;8.88;;;;;;;4.12;74.40;98702.94;5028783;28;20083;-73